Time;durP1;ratioP1;P1;durP2;ratioP2;P2;SDS_P1;SDS_P2;PMS_P1;PMS_P2;Temp;Humidity;BMP_temperature;BMP_pressure;BME280_temperature;BME280_humidity;BME280_pressure;Samples;Min_cycle;Max_cycle;Signal;HPM_P1;HPM_P2
2022/12/14 00:00:39;;;;;;;17.95;7.40;;;;;;;-3.37;81.11;100438.69;5113781;28;20020;-82
2022/12/14 00:03:05;;;;;;;18.83;7.93;;;;;;;-3.35;82.48;100437.06;5113472;28;20027;-82
2022/12/14 00:05:30;;;;;;;18.45;6.78;;;;;;;-3.35;82.33;100428.59;5113828;28;20024;-82
2022/12/14 00:07:56;;;;;;;17.67;6.60;;;;;;;-3.36;82.17;100442.09;5114845;28;20025;-82
2022/12/14 00:10:21;;;;;;;18.48;7.22;;;;;;;-3.34;82.59;100425.25;5114159;28;20026;-82
2022/12/14 00:12:46;;;;;;;19.35;7.97;;;;;;;-3.38;81.25;100416.69;5113149;28;20027;-82
2022/12/14 00:15:11;;;;;;;21.00;9.10;;;;;;;-3.39;80.55;100419.16;5113408;28;20455;-82
2022/12/14 00:17:37;;;;;;;20.20;9.00;;;;;;;-3.39;80.61;100416.59;5113639;28;20030;-82
2022/12/14 00:20:03;;;;;;;22.60;8.95;;;;;;;-3.40;80.33;100408.16;5112643;28;20020;-82
2022/12/14 00:22:28;;;;;;;20.27;8.68;;;;;;;-3.43;80.45;100408.88;5113296;28;20024;-82
2022/12/14 00:24:53;;;;;;;19.85;8.05;;;;;;;-3.42;80.90;100402.16;5113826;28;20115;-82
2022/12/14 00:27:18;;;;;;;20.45;8.50;;;;;;;-3.42;81.20;100403.00;5112536;28;20031;-82
2022/12/14 00:29:44;;;;;;;21.08;9.18;;;;;;;-3.47;80.26;100399.47;5113462;28;20047;-82
2022/12/14 00:32:09;;;;;;;21.50;9.23;;;;;;;-3.49;80.35;100408.69;5113211;28;20023;-82
2022/12/14 00:34:34;;;;;;;22.95;9.40;;;;;;;-3.49;79.96;100406.16;5112902;28;20020;-82
2022/12/14 00:36:59;;;;;;;21.30;8.70;;;;;;;-3.50;80.18;100401.03;5113480;28;20069;-82
2022/12/14 00:39:25;;;;;;;18.95;7.88;;;;;;;-3.49;81.01;100402.75;5113206;28;20019;-82
2022/12/14 00:41:50;;;;;;;20.15;8.18;;;;;;;-3.55;79.79;100392.38;5112326;28;20479;-83
2022/12/14 00:44:15;;;;;;;23.02;9.55;;;;;;;-3.60;79.03;100388.00;5113109;28;20024;-82
2022/12/14 00:46:41;;;;;;;21.25;9.27;;;;;;;-3.53;80.49;100383.16;5113242;28;20054;-82
2022/12/14 00:49:06;;;;;;;21.55;9.35;;;;;;;-3.61;79.13;100382.88;5112546;28;20023;-82
2022/12/14 00:51:31;;;;;;;20.95;9.15;;;;;;;-3.60;80.08;100370.25;5113355;28;20051;-82
2022/12/14 00:53:56;;;;;;;21.60;8.77;;;;;;;-3.64;79.84;100363.34;5113354;28;20471;-82
2022/12/14 00:56:22;;;;;;;20.60;8.43;;;;;;;-3.64;79.87;100363.34;5112221;28;20034;-82
2022/12/14 00:58:51;;;;;;;20.27;7.93;;;;;;;-3.67;80.08;100357.31;5113141;28;20572;-82
2022/12/14 01:01:16;;;;;;;20.77;8.60;;;;;;;-3.67;80.22;100357.31;5112087;28;20043;-82
2022/12/14 01:03:41;;;;;;;21.52;9.00;;;;;;;-3.72;79.86;100352.94;5113058;28;20486;-82
2022/12/14 01:06:19;;;;;;;21.45;9.02;;;;;;;-3.76;79.96;100361.25;5112963;28;20019;-82
2022/12/14 01:08:44;;;;;;;21.20;8.70;;;;;;;-3.78;80.40;100359.47;5112565;28;20016;-82
2022/12/14 01:11:11;;;;;;;20.50;8.77;;;;;;;-3.78;80.42;100359.47;5112627;28;20357;-82
2022/12/14 01:13:37;;;;;;;22.83;9.60;;;;;;;-3.86;80.12;100349.03;5113139;28;20038;-82
2022/12/14 01:16:10;;;;;;;21.67;9.55;;;;;;;-3.86;80.50;100350.72;5111765;27;20019;-81
2022/12/14 01:18:36;;;;;;;21.27;8.90;;;;;;;-3.89;81.04;100347.28;5112899;28;20028;-82
2022/12/14 01:21:16;;;;;;;19.40;8.30;;;;;;;-3.89;80.57;100346.44;5113076;28;20027;-82
2022/12/14 01:23:43;;;;;;;20.02;8.40;;;;;;;-3.90;80.84;100345.53;5112285;28;20015;-82
2022/12/14 01:26:09;;;;;;;20.83;8.75;;;;;;;-3.91;80.87;100342.97;5112778;28;20019;-82
2022/12/14 01:28:34;;;;;;;21.30;8.38;;;;;;;-3.92;81.11;100334.47;5112721;28;20073;-82
2022/12/14 01:31:12;;;;;;;21.73;9.68;;;;;;;-3.96;80.22;100336.84;5112050;28;20376;-82
2022/12/14 01:33:37;;;;;;;20.98;8.75;;;;;;;-3.96;80.38;100342.81;5115094;28;20073;-81
2022/12/14 01:36:08;;;;;;;21.73;9.52;;;;;;;-3.96;80.42;100344.47;5116477;28;20035;-82
2022/12/14 01:38:34;;;;;;;21.55;9.23;;;;;;;-3.97;80.47;100340.19;5116330;28;20058;-82
2022/12/14 01:41:00;;;;;;;19.67;8.13;;;;;;;-3.93;81.67;100342.03;5116925;28;20081;-82
2022/12/14 01:43:44;;;;;;;19.65;8.45;;;;;;;-3.91;81.17;100343.81;5115754;28;20027;-82
2022/12/14 01:46:10;;;;;;;18.15;7.25;;;;;;;-3.92;81.11;100338.69;5116588;28;20076;-82
2022/12/14 01:48:35;;;;;;;18.33;7.43;;;;;;;-3.91;81.41;100341.28;5116734;28;20028;-82
2022/12/14 01:51:01;;;;;;;17.65;6.90;;;;;;;-3.92;81.12;100346.31;5115820;28;20119;-82
2022/12/14 01:53:26;;;;;;;20.20;8.38;;;;;;;-3.93;80.68;100345.44;5116364;28;20070;-82
2022/12/14 01:55:54;;;;;;;18.00;7.20;;;;;;;-3.91;81.50;100336.22;5116807;28;20023;-82
2022/12/14 01:58:25;;;;;;;17.50;6.60;;;;;;;-3.89;81.32;100336.28;5109627;28;20072;-82
2022/12/14 02:00:57;;;;;;;17.23;6.97;;;;;;;-3.92;80.28;100339.56;5095852;28;20039;-81
2022/12/14 02:03:35;;;;;;;19.25;7.40;;;;;;;-3.91;80.66;100335.34;5095619;28;20024;-82
2022/12/14 02:06:10;;;;;;;15.93;6.57;;;;;;;-3.90;81.23;100325.25;5095127;28;20039;-81
2022/12/14 02:08:38;;;;;;;15.90;5.65;;;;;;;-3.92;81.01;100326.88;5095796;28;20426;-82
2022/12/14 02:11:03;;;;;;;14.73;6.03;;;;;;;-3.92;80.94;100318.41;5095715;28;20078;-81
2022/12/14 02:13:36;;;;;;;17.20;6.90;;;;;;;-3.94;80.90;100318.34;5094809;28;20024;-82
2022/12/14 02:16:01;;;;;;;19.25;7.60;;;;;;;-3.95;80.95;100321.72;5090579;28;20460;-81
2022/12/14 02:18:29;;;;;;;21.95;9.07;;;;;;;-4.01;80.04;100315.56;5094793;28;20030;-81
2022/12/14 02:21:20;;;;;;;21.20;8.95;;;;;;;-4.04;80.07;100311.22;5095309;28;20461;-82
2022/12/14 02:24:13;;;;;;;20.58;8.45;;;;;;;-4.01;80.85;100316.41;5095633;28;20028;-82
2022/12/14 02:26:51;;;;;;;19.55;7.55;;;;;;;-4.03;81.27;100311.31;5094634;28;20036;-81
2022/12/14 02:29:31;;;;;;;18.90;7.65;;;;;;;-4.01;80.71;100308.81;5095397;28;20028;-82
2022/12/14 02:32:02;;;;;;;21.30;8.80;;;;;;;-4.04;80.73;100304.50;5095400;28;20027;-82
2022/12/14 02:35:09;;;;;;;20.13;8.20;;;;;;;-4.06;81.04;100298.50;5094564;28;20028;-81
2022/12/14 02:37:45;;;;;;;17.92;7.32;;;;;;;-4.06;80.94;100295.13;5060780;28;20044;-82
2022/12/14 02:40:13;;;;;;;17.37;6.73;;;;;;;-4.06;81.34;100301.03;5094140;28;20423;-81
2022/12/14 02:43:10;;;;;;;16.67;6.82;;;;;;;-4.06;81.28;100305.28;5095370;28;20035;-81
2022/12/14 02:45:53;;;;;;;17.65;7.15;;;;;;;-4.07;80.98;100306.06;5094918;28;20028;-81
2022/12/14 02:48:25;;;;;;;16.67;6.15;;;;;;;-4.05;81.88;100301.91;5089077;28;20119;-82
2022/12/14 02:51:00;;;;;;;18.17;6.93;;;;;;;-4.07;80.98;100301.00;5094841;28;20028;-82
2022/12/14 02:53:41;;;;;;;19.13;7.72;;;;;;;-4.11;81.24;100296.63;5094601;28;20071;-82
2022/12/14 02:56:12;;;;;;;20.50;8.20;;;;;;;-4.15;80.79;100292.25;5094746;28;20032;-81
2022/12/14 02:58:41;;;;;;;20.30;8.30;;;;;;;-4.16;80.78;100288.84;5094621;28;20396;-82
2022/12/14 03:01:12;;;;;;;21.75;8.95;;;;;;;-4.19;81.56;100287.09;5093885;28;20028;-82
2022/12/14 03:03:39;;;;;;;21.13;8.65;;;;;;;-4.19;80.92;100289.63;5094906;28;20053;-82
2022/12/14 03:06:13;;;;;;;19.58;8.20;;;;;;;-4.17;81.12;100289.66;5094487;28;20431;-82
2022/12/14 03:08:41;;;;;;;22.90;9.30;;;;;;;-4.19;80.37;100296.34;5094105;28;20023;-82
2022/12/14 03:11:09;;;;;;;19.45;7.63;;;;;;;-4.17;80.76;100297.28;5094427;28;20029;-82
2022/12/14 03:13:43;;;;;;;21.05;9.07;;;;;;;-4.17;80.35;100298.94;5094403;28;20024;-81
2022/12/14 03:16:13;;;;;;;20.88;8.80;;;;;;;-4.14;81.07;100304.09;5093535;28;20490;-82
2022/12/14 03:18:44;;;;;;;18.85;7.53;;;;;;;-4.10;81.74;100300.88;5094386;28;20480;-81
2022/12/14 03:21:14;;;;;;;16.35;6.38;;;;;;;-4.09;81.64;100287.41;5094086;28;20020;-81
2022/12/14 03:23:42;;;;;;;15.95;6.00;;;;;;;-4.06;81.99;100287.53;5093710;28;20445;-82
2022/12/14 03:26:28;;;;;;;18.10;7.20;;;;;;;-4.07;81.58;100286.66;5094051;28;20103;-81
2022/12/14 03:29:04;;;;;;;18.08;7.57;;;;;;;-4.07;81.41;100278.19;5093849;28;20119;-81
2022/12/14 03:31:57;;;;;;;20.05;9.05;;;;;;;-4.12;81.15;100264.47;5094244;28;20035;-82
2022/12/14 03:34:54;;;;;;;21.77;9.70;;;;;;;-4.16;80.85;100262.63;5083374;28;20044;-82
2022/12/14 03:37:29;;;;;;;20.85;9.57;;;;;;;-4.20;80.54;100256.59;5092934;28;20166;-82
2022/12/14 03:39:54;;;;;;;21.35;9.20;;;;;;;-4.20;80.88;100254.94;5094036;28;20028;-82
2022/12/14 03:42:25;;;;;;;21.73;10.10;;;;;;;-4.22;81.04;100251.50;5093752;28;20016;-82
2022/12/14 03:45:03;;;;;;;23.63;10.18;;;;;;;-4.25;81.19;100242.94;5093248;28;20034;-82
2022/12/14 03:47:31;;;;;;;22.92;10.05;;;;;;;-4.27;80.95;100247.91;5094027;28;20028;-82
2022/12/14 03:50:13;;;;;;;21.83;9.32;;;;;;;-4.24;81.39;100248.03;5092902;28;20376;-81
2022/12/14 03:52:49;;;;;;;21.40;9.13;;;;;;;-4.21;81.54;100247.28;5093482;28;20110;-81
2022/12/14 03:55:39;;;;;;;20.75;8.80;;;;;;;-4.21;81.51;100250.69;5093478;28;20028;-82
2022/12/14 03:58:13;;;;;;;22.88;9.90;;;;;;;-4.21;81.08;100245.63;5095534;28;20044;-81
2022/12/14 04:00:46;;;;;;;19.70;8.38;;;;;;;-4.16;81.67;100247.44;5114022;28;20439;-82
2022/12/14 04:03:23;;;;;;;19.58;7.97;;;;;;;-4.17;81.61;100238.97;5113978;28;20027;-81
2022/12/14 04:05:58;;;;;;;23.67;9.77;;;;;;;-4.20;81.06;100237.22;5113300;28;20031;-82
2022/12/14 04:08:56;;;;;;;20.80;9.50;;;;;;;-4.20;81.40;100231.25;5113743;28;20447;-81
2022/12/14 04:20:19;;;;;;;23.65;9.32;;;;;;;-4.20;81.18;100218.59;5113506;28;20084;-82
2022/12/14 04:22:51;;;;;;;19.67;8.35;;;;;;;-4.19;81.71;100213.59;5113394;28;20390;-82
2022/12/14 04:31:05;;;;;;;21.83;9.73;;;;;;;-4.20;80.85;100205.91;5113764;28;20062;-82
2022/12/14 04:33:48;;;;;;;19.60;8.45;;;;;;;-4.17;81.52;100200.97;5126760;27;20395;-82
2022/12/14 04:36:21;;;;;;;19.75;7.88;;;;;;;-4.13;81.72;100209.53;5133756;27;20027;-82
2022/12/14 04:38:52;;;;;;;22.10;9.00;;;;;;;-4.13;81.49;100202.81;5134042;27;20054;-81
2022/12/14 04:41:22;;;;;;;22.42;9.32;;;;;;;-4.13;81.37;100199.38;5132923;27;20474;-82
2022/12/14 04:43:52;;;;;;;19.25;8.10;;;;;;;-4.13;81.73;100192.66;5133881;27;20025;-82
2022/12/14 04:46:23;;;;;;;20.38;8.88;;;;;;;-4.12;81.58;100185.91;5132916;27;20376;-82
2022/12/14 04:49:06;;;;;;;22.63;9.77;;;;;;;-4.17;81.80;100195.91;5134195;27;20026;-82
2022/12/14 04:51:34;;;;;;;20.95;9.68;;;;;;;-4.20;81.74;100184.00;5134156;27;20020;-81
2022/12/14 04:54:12;;;;;;;22.23;9.80;;;;;;;-4.19;82.07;100189.91;5133142;27;20027;-82
2022/12/14 04:56:49;;;;;;;23.73;9.38;;;;;;;-4.17;82.32;100184.91;5133973;27;20027;-82
2022/12/14 04:59:15;;;;;;;24.13;10.30;;;;;;;-4.25;82.45;100175.34;5133493;27;20074;-82
2022/12/14 05:02:09;;;;;;;23.40;10.50;;;;;;;-4.25;81.94;100180.44;5133053;28;20081;-82
2022/12/14 05:04:54;;;;;;;22.95;9.90;;;;;;;-4.24;82.30;100171.16;5133667;27;20062;-82
2022/12/14 05:07:19;;;;;;;23.00;10.18;;;;;;;-4.23;82.25;100171.22;5132908;27;20027;-82
2022/12/14 05:09:51;;;;;;;20.38;8.77;;;;;;;-4.22;82.65;100175.47;5137938;27;20039;-82
2022/12/14 05:12:22;;;;;;;19.52;8.40;;;;;;;-4.19;82.57;100167.09;5137812;27;20031;-82
2022/12/14 05:14:53;;;;;;;19.75;8.55;;;;;;;-4.16;82.64;100166.34;5137283;27;20034;-82
2022/12/14 05:17:19;;;;;;;19.92;8.93;;;;;;;-4.21;82.25;100171.25;5137610;27;20019;-82
2022/12/14 05:19:48;;;;;;;20.52;9.48;;;;;;;-4.21;82.55;100164.53;5137780;27;20106;-82
2022/12/14 05:22:14;;;;;;;20.63;9.38;;;;;;;-4.19;81.92;100164.56;5134532;27;20030;-82
2022/12/14 05:24:39;;;;;;;21.15;8.75;;;;;;;-4.17;82.67;100167.19;5137803;27;20015;-82
2022/12/14 05:27:04;;;;;;;20.90;8.80;;;;;;;-4.16;82.27;100161.25;5137188;27;20031;-81
2022/12/14 05:29:30;;;;;;;20.63;8.50;;;;;;;-4.19;82.26;100157.84;5136506;27;20110;-82
2022/12/14 05:31:55;;;;;;;19.88;8.70;;;;;;;-4.17;82.50;100157.03;5137538;27;20019;-82
2022/12/14 05:34:20;;;;;;;20.27;9.00;;;;;;;-4.20;82.31;100155.25;5137364;27;20106;-82
2022/12/14 05:36:46;;;;;;;22.27;10.02;;;;;;;-4.20;82.64;100158.66;5136844;27;20436;-82
2022/12/14 05:39:12;;;;;;;21.60;9.45;;;;;;;-4.20;82.70;100161.19;5137070;27;20239;-82
2022/12/14 05:41:37;;;;;;;20.20;8.63;;;;;;;-4.21;82.43;100158.59;5137232;27;20031;-81
2022/12/14 05:44:03;;;;;;;20.67;8.65;;;;;;;-4.22;82.73;100157.72;5135654;27;20342;-82
2022/12/14 05:46:37;;;;;;;21.38;9.00;;;;;;;-4.21;82.46;100156.03;5136349;27;20023;-82
2022/12/14 05:49:03;;;;;;;20.98;9.05;;;;;;;-4.19;82.94;100159.50;5137175;27;20424;-81
2022/12/14 05:51:28;;;;;;;19.85;8.40;;;;;;;-4.17;82.62;100157.03;5136091;27;20031;-82
2022/12/14 05:53:53;;;;;;;20.17;8.50;;;;;;;-4.16;82.91;100154.53;5137045;27;20106;-82
2022/12/14 05:56:19;;;;;;;20.38;8.65;;;;;;;-4.16;83.05;100158.72;5136690;27;20157;-82
2022/12/14 05:58:48;;;;;;;18.98;7.88;;;;;;;-4.16;82.61;100162.16;5136021;27;20372;-82
2022/12/14 06:01:13;;;;;;;20.40;8.68;;;;;;;-4.17;82.84;100154.50;5136638;27;20383;-82
2022/12/14 06:03:39;;;;;;;20.80;8.35;;;;;;;-4.15;82.77;100151.19;5135760;27;20038;-82
2022/12/14 06:06:07;;;;;;;19.77;8.45;;;;;;;-4.14;82.56;100152.94;5136097;27;20042;-82
2022/12/14 06:08:36;;;;;;;20.70;8.05;;;;;;;-4.13;83.19;100146.16;5136828;27;20019;-82
2022/12/14 06:11:17;;;;;;;18.10;7.57;;;;;;;-4.10;82.63;100146.28;5136003;27;20058;-82
2022/12/14 06:13:44;;;;;;;20.17;8.68;;;;;;;-4.10;82.77;100148.81;5136673;27;20110;-82
2022/12/14 06:16:17;;;;;;;16.77;6.95;;;;;;;-4.07;82.81;100136.25;5136355;27;20096;-82
2022/12/14 06:18:45;;;;;;;20.17;8.20;;;;;;;-4.10;82.58;100142.06;5135316;27;20034;-82
2022/12/14 06:21:12;;;;;;;18.42;7.53;;;;;;;-4.07;83.05;100136.25;5136108;27;20115;-81
2022/12/14 06:23:37;;;;;;;18.58;7.47;;;;;;;-4.07;83.00;100128.66;5136289;27;20034;-82
2022/12/14 06:26:03;;;;;;;18.50;7.60;;;;;;;-4.06;82.71;100138.81;5135371;27;20023;-81
2022/12/14 06:28:28;;;;;;;19.20;8.05;;;;;;;-4.08;82.41;100134.53;5136484;27;20019;-82
2022/12/14 06:30:53;;;;;;;18.67;7.60;;;;;;;-4.05;82.64;100137.13;5136327;27;20030;-82
2022/12/14 06:33:19;;;;;;;19.50;8.13;;;;;;;-4.07;82.43;100138.78;5135086;27;20030;-82
2022/12/14 06:35:45;;;;;;;18.77;7.55;;;;;;;-4.04;82.73;100136.34;5136041;27;20023;-82
2022/12/14 06:38:12;;;;;;;19.05;7.43;;;;;;;-4.04;82.94;100143.94;5136236;27;20039;-82
2022/12/14 06:40:38;;;;;;;18.00;7.13;;;;;;;-4.03;82.76;100140.59;5135528;27;20019;-82
2022/12/14 06:43:03;;;;;;;18.60;7.40;;;;;;;-4.04;83.17;100146.47;5135577;27;20360;-81
2022/12/14 06:45:29;;;;;;;18.63;7.20;;;;;;;-4.03;83.20;100145.66;5136358;27;20026;-81
2022/12/14 06:47:54;;;;;;;18.55;7.80;;;;;;;-4.04;82.99;100149.88;5134969;27;20072;-81
2022/12/14 06:50:19;;;;;;;17.48;6.90;;;;;;;-4.01;83.45;100153.34;5130782;27;20026;-81
2022/12/14 06:52:49;;;;;;;17.85;7.15;;;;;;;-4.03;82.87;100149.06;5122783;27;20417;-82
2022/12/14 06:55:14;;;;;;;20.50;8.30;;;;;;;-4.04;83.11;100144.81;5131086;27;20020;-82
2022/12/14 06:57:39;;;;;;;19.90;8.57;;;;;;;-4.05;83.24;100148.16;5127458;27;20034;-81
2022/12/14 07:00:05;;;;;;;21.60;9.07;;;;;;;-4.06;82.77;100155.72;5134740;27;20047;-82
2022/12/14 07:02:30;;;;;;;21.48;9.57;;;;;;;-4.08;82.95;100152.28;5135677;27;20071;-82
2022/12/14 07:04:56;;;;;;;20.70;8.70;;;;;;;-4.08;82.97;100153.13;5135828;27;20015;-82
2022/12/14 07:07:21;;;;;;;20.88;9.43;;;;;;;-4.13;82.85;100148.72;5134409;27;20477;-82
2022/12/14 07:09:46;;;;;;;20.60;9.10;;;;;;;-4.09;83.00;100160.69;5135393;27;20067;-82
2022/12/14 07:12:11;;;;;;;22.08;10.00;;;;;;;-4.11;83.07;100154.69;5134985;27;20046;-82
2022/12/14 07:14:37;;;;;;;23.33;10.38;;;;;;;-4.14;83.27;100162.19;5116277;27;20456;-81
2022/12/14 07:17:02;;;;;;;22.17;10.40;;;;;;;-4.17;83.28;100157.03;5114835;28;20038;-82
2022/12/14 07:19:27;;;;;;;22.35;9.60;;;;;;;-4.16;83.40;100164.69;5114567;28;20050;-81
2022/12/14 07:21:53;;;;;;;23.88;10.85;;;;;;;-4.20;83.07;100158.66;5114298;28;20027;-81
2022/12/14 07:24:18;;;;;;;21.30;9.30;;;;;;;-4.17;83.34;100162.09;5114420;28;20480;-81
2022/12/14 07:26:43;;;;;;;22.35;10.80;;;;;;;-4.21;83.26;100162.00;5123038;27;20031;-81
2022/12/14 07:29:10;;;;;;;23.52;10.60;;;;;;;-4.21;83.04;100163.66;5134280;27;20132;-81
2022/12/14 07:31:45;;;;;;;;;;;;;;;-4.19;83.06;100169.63;5117833;27;20027;-82
2022/12/14 07:34:12;;;;;;;21.23;9.30;;;;;;;-4.22;83.30;100159.38;5122661;27;19916;-82
2022/12/14 07:36:37;;;;;;;;;;;;;;;-4.23;82.74;100167.81;5114340;28;20019;-82
2022/12/14 07:39:02;;;;;;;20.30;8.90;;;;;;;-4.23;83.26;100167.81;5115299;27;20002;-82
2022/12/14 07:41:30;;;;;;;21.52;8.88;;;;;;;-4.25;83.14;100160.16;5134250;27;20137;-82
2022/12/14 07:43:57;;;;;;;19.73;9.00;;;;;;;-4.25;82.95;100165.22;5120622;27;20031;-82
2022/12/14 07:46:24;;;;;;;21.48;8.77;;;;;;;-4.25;83.15;100159.31;5122431;27;20032;-80
2022/12/14 07:48:52;;;;;;;19.42;8.40;;;;;;;-4.26;83.30;100166.03;5114477;28;20379;-81
2022/12/14 07:51:21;;;;;;;20.58;9.00;;;;;;;-4.30;82.62;100166.75;5114181;27;20036;-82
2022/12/14 07:53:47;;;;;;;20.77;8.90;;;;;;;-4.30;82.68;100169.28;5114408;27;20585;-81
2022/12/14 07:56:15;;;;;;;20.90;9.35;;;;;;;-4.27;82.92;100173.59;5119697;27;20106;-82
2022/12/14 07:58:40;;;;;;;20.33;9.00;;;;;;;-4.29;83.08;100167.59;5127545;27;20042;-82
2022/12/14 08:01:15;;;;;;;21.33;9.10;;;;;;;-4.31;82.76;100172.63;5127725;27;20031;-82
2022/12/14 08:03:42;;;;;;;20.52;9.57;;;;;;;-4.30;83.03;100183.63;5132037;27;20027;-82
2022/12/14 08:06:10;;;;;;;20.67;9.60;;;;;;;-4.30;82.97;100184.50;5113909;28;20035;-82
2022/12/14 08:08:36;;;;;;;24.23;9.93;;;;;;;-4.33;83.12;100181.84;5114072;28;20031;-81
2022/12/14 08:11:02;;;;;;;21.73;9.10;;;;;;;-4.32;83.37;100178.50;5113322;28;20035;-82
2022/12/14 08:13:27;;;;;;;21.77;9.10;;;;;;;-4.31;83.14;100180.22;5113764;28;20034;-82
2022/12/14 08:15:52;;;;;;;21.98;10.00;;;;;;;-4.34;82.90;100180.13;5115401;27;20024;-82
2022/12/14 08:18:18;;;;;;;20.05;8.80;;;;;;;-4.31;82.71;100185.28;5133532;27;20035;-82
2022/12/14 08:20:48;;;;;;;18.55;7.93;;;;;;;-4.29;83.14;100187.88;5134033;27;20027;-82
2022/12/14 08:23:13;;;;;;;16.83;7.35;;;;;;;-4.28;83.57;100193.00;5126755;27;20020;-82
2022/12/14 08:25:38;;;;;;;15.85;6.38;;;;;;;-4.26;83.62;100196.44;5113298;28;20487;-82
2022/12/14 08:28:04;;;;;;;15.13;6.28;;;;;;;-4.25;83.72;100189.72;5113292;28;20102;-82
2022/12/14 08:30:29;;;;;;;13.90;5.97;;;;;;;-4.24;84.00;100192.28;5112931;28;20499;-82
2022/12/14 08:32:54;;;;;;;13.55;5.60;;;;;;;-4.25;83.71;100195.63;5112224;28;20544;-82
2022/12/14 08:35:20;;;;;;;13.45;5.55;;;;;;;-4.25;83.85;100192.25;5114097;27;20030;-82
2022/12/14 08:37:45;;;;;;;12.98;5.22;;;;;;;-4.26;84.21;100196.44;5113307;28;20020;-82
2022/12/14 08:40:10;;;;;;;12.48;5.10;;;;;;;-4.26;84.03;100198.97;5124419;27;20025;-81
2022/12/14 08:42:35;;;;;;;12.02;5.13;;;;;;;-4.27;83.80;100204.84;5113491;28;20020;-82
2022/12/14 08:45:01;;;;;;;16.08;6.28;;;;;;;-4.28;83.66;100200.63;5130419;27;20032;-83
2022/12/14 08:47:26;;;;;;;15.25;6.07;;;;;;;-4.29;83.61;100196.34;5112193;28;20043;-83
2022/12/14 08:49:52;;;;;;;12.98;5.63;;;;;;;-4.31;84.24;100190.38;5112787;28;20411;-82
2022/12/14 08:52:20;;;;;;;20.70;8.93;;;;;;;-4.37;83.64;100191.00;5113985;28;20023;-82
2022/12/14 08:54:45;;;;;;;20.02;8.98;;;;;;;-4.39;83.83;100196.84;5128174;27;20379;-82
2022/12/14 08:57:10;;;;;;;19.70;8.10;;;;;;;-4.40;83.99;100193.44;5133216;27;20034;-82
2022/12/14 08:59:36;;;;;;;19.08;8.43;;;;;;;-4.42;83.43;100196.72;5121701;28;20044;-82
2022/12/14 09:02:01;;;;;;;21.35;9.73;;;;;;;-4.45;83.14;100192.44;5126693;28;20035;-83
2022/12/14 09:04:26;;;;;;;20.42;9.38;;;;;;;-4.44;83.61;100199.19;5133331;28;20046;-82
2022/12/14 09:06:51;;;;;;;23.17;10.43;;;;;;;-4.42;83.26;100196.72;5123462;27;20099;-82
2022/12/14 09:09:17;;;;;;;20.88;9.18;;;;;;;-4.38;83.38;100201.06;5126818;28;20027;-83
2022/12/14 09:11:43;;;;;;;21.45;9.32;;;;;;;-4.36;83.04;100199.47;5113255;28;20070;-82
2022/12/14 09:14:09;;;;;;;21.60;9.45;;;;;;;-4.28;83.25;100204.81;5112118;28;20027;-83
2022/12/14 09:16:34;;;;;;;19.93;9.40;;;;;;;-4.18;83.30;100206.84;5113235;28;20028;-83
2022/12/14 09:19:00;;;;;;;19.95;8.70;;;;;;;-4.09;83.35;100211.38;5113975;28;20581;-83
2022/12/14 09:21:25;;;;;;;20.95;9.65;;;;;;;-4.02;82.31;100213.28;5116959;28;20028;-83
2022/12/14 09:23:51;;;;;;;22.95;9.77;;;;;;;-4.02;82.40;100213.28;5113248;28;20050;-83
2022/12/14 09:26:19;;;;;;;20.08;8.88;;;;;;;-4.02;82.88;100215.81;5112946;28;20520;-83
2022/12/14 09:28:47;;;;;;;20.58;8.77;;;;;;;-4.00;82.98;100216.75;5112440;28;20046;-84
2022/12/14 09:31:14;;;;;;;20.80;9.25;;;;;;;-3.99;82.04;100226.06;5112360;28;20508;-83
2022/12/14 09:33:40;;;;;;;23.55;10.70;;;;;;;-4.02;81.61;100223.44;5112929;28;20032;-83
2022/12/14 09:36:17;;;;;;;21.58;9.90;;;;;;;-3.99;81.78;100221.00;5122172;28;20117;-82
2022/12/14 09:38:43;;;;;;;22.25;10.68;;;;;;;-3.91;81.88;100222.13;5132796;27;20027;-83
2022/12/14 09:41:29;;;;;;;21.73;10.02;;;;;;;-3.84;80.25;100214.72;5113200;28;20056;-83
2022/12/14 09:44:18;;;;;;;21.58;9.93;;;;;;;-3.77;80.58;100209.88;5112834;28;20023;-83
2022/12/14 09:47:12;;;;;;;24.05;10.88;;;;;;;-3.70;80.89;100205.88;5113075;28;20360;-83
2022/12/14 09:49:45;;;;;;;23.77;10.65;;;;;;;-3.63;79.21;100206.94;5112356;28;20024;-83
2022/12/14 09:52:19;;;;;;;21.42;9.82;;;;;;;-3.58;79.08;100207.97;5112651;28;20024;-82
2022/12/14 09:54:46;;;;;;;23.38;10.70;;;;;;;-3.51;78.28;100214.94;5115137;28;20544;-82
2022/12/14 09:57:36;;;;;;;23.17;10.82;;;;;;;-3.50;77.84;100223.44;5115869;28;20428;-83
2022/12/14 10:00:03;;;;;;;25.30;11.20;;;;;;;-3.48;78.16;100216.72;5116355;28;20051;-83
2022/12/14 10:02:41;;;;;;;22.42;10.40;;;;;;;-3.36;79.01;100211.19;5116101;28;20084;-83
2022/12/14 10:05:53;;;;;;;21.45;9.48;;;;;;;-3.22;78.78;100212.47;5116109;28;20468;-83
2022/12/14 10:08:42;;;;;;;22.33;9.30;;;;;;;-3.25;76.91;100214.91;5117156;27;20026;-82
2022/12/14 10:11:21;;;;;;;20.83;9.10;;;;;;;-3.16;78.17;100205.03;5135848;27;20118;-83
2022/12/14 10:13:54;;;;;;;20.42;8.02;;;;;;;-3.04;78.39;100199.44;5137056;27;20074;-83
2022/12/14 10:16:50;;;;;;;22.13;8.60;;;;;;;-2.99;77.31;100197.06;5136718;27;20079;-84
2022/12/14 10:19:40;;;;;;;19.77;8.25;;;;;;;-2.84;78.47;100191.56;5124009;27;20030;-83
2022/12/14 10:22:13;;;;;;;19.83;7.70;;;;;;;-2.71;77.36;100206.34;5115944;28;20111;-83
2022/12/14 10:24:46;;;;;;;20.80;9.13;;;;;;;-2.72;75.43;100207.16;5114885;28;20023;-83
2022/12/14 10:27:21;;;;;;;21.13;9.38;;;;;;;-2.78;75.18;100211.19;5115903;28;20028;-84
2022/12/14 10:29:53;;;;;;;19.92;8.90;;;;;;;-2.76;75.23;100209.56;5115962;28;20544;-83
2022/12/14 10:32:45;;;;;;;19.95;8.70;;;;;;;-2.77;75.71;100200.22;5114709;28;20460;-84
2022/12/14 10:35:19;;;;;;;21.95;9.07;;;;;;;-2.69;75.28;100211.47;5122710;27;20433;-83
2022/12/14 10:38:09;;;;;;;18.98;8.32;;;;;;;-2.61;75.26;100210.00;5136415;27;20034;-84
2022/12/14 10:40:47;;;;;;;19.83;8.20;;;;;;;-2.56;74.96;100212.66;5107300;27;20046;-84
2022/12/14 10:43:12;;;;;;;18.90;8.52;;;;;;;-2.52;74.75;100211.94;5136248;27;20103;-83
2022/12/14 10:45:50;;;;;;;18.83;8.18;;;;;;;-2.46;74.75;100219.72;5135582;27;20511;-84
2022/12/14 10:48:46;;;;;;;19.98;8.25;;;;;;;-2.38;75.13;100223.34;5136142;27;20034;-85
2022/12/14 10:51:22;;;;;;;19.50;8.13;;;;;;;-2.25;74.74;100222.00;5136036;27;20027;-84
2022/12/14 10:53:56;;;;;;;19.75;8.00;;;;;;;-2.16;73.46;100218.84;5135593;27;20102;-85
2022/12/14 10:56:28;;;;;;;20.92;9.20;;;;;;;-2.22;72.38;100222.09;5135476;27;20471;-84
2022/12/14 10:59:22;;;;;;;20.42;9.13;;;;;;;-2.27;72.53;100220.22;5135505;27;20108;-83
2022/12/14 11:02:02;;;;;;;21.25;8.60;;;;;;;-2.24;73.03;100215.22;5116702;27;20048;-84
2022/12/14 11:04:48;;;;;;;17.75;7.70;;;;;;;-2.14;74.34;100211.25;5115500;28;20024;-84
2022/12/14 11:07:15;;;;;;;19.27;8.00;;;;;;;-1.99;73.90;100208.22;5113640;28;20023;-85
2022/12/14 11:09:41;;;;;;;19.70;8.07;;;;;;;-1.95;72.10;100215.13;5114909;28;20511;-85
2022/12/14 11:12:13;;;;;;;18.48;8.30;;;;;;;-1.92;71.42;100217.75;5115211;28;20093;-86
2022/12/14 11:14:51;;;;;;;21.40;8.63;;;;;;;-1.86;70.82;100217.91;5114859;28;20027;-84
2022/12/14 11:17:43;;;;;;;18.48;7.97;;;;;;;-1.78;73.46;100208.78;5114901;28;20054;-84
2022/12/14 11:20:17;;;;;;;20.00;8.18;;;;;;;-1.70;71.31;100206.41;5110065;28;20031;-84
2022/12/14 11:22:55;;;;;;;19.85;8.40;;;;;;;-1.73;69.79;100217.38;5114740;28;20412;-84
2022/12/14 11:25:42;;;;;;;19.27;7.97;;;;;;;-1.64;72.45;100213.34;5113100;28;20028;-84
2022/12/14 11:28:34;;;;;;;16.75;7.65;;;;;;;-1.52;73.14;100200.91;5116427;27;20491;-84
2022/12/14 11:31:04;;;;;;;16.65;7.10;;;;;;;-1.41;72.98;100206.28;5131113;27;20023;-84
2022/12/14 11:33:37;;;;;;;15.23;6.53;;;;;;;-1.31;73.91;100210.75;5132021;27;20481;-84
2022/12/14 11:36:03;;;;;;;15.02;6.18;;;;;;;-1.22;71.99;100215.16;5119097;27;20027;-84
2022/12/14 11:38:28;;;;;;;15.13;6.28;;;;;;;-1.16;72.74;100210.22;5135235;27;20026;-85
2022/12/14 11:40:54;;;;;;;17.52;7.70;;;;;;;-1.16;69.19;100212.78;5130248;27;20026;-84
2022/12/14 11:43:37;;;;;;;16.83;7.32;;;;;;;-1.15;71.95;100206.84;5118943;27;20019;-84
2022/12/14 11:46:04;;;;;;;16.70;7.35;;;;;;;-1.09;71.13;100203.59;5121678;27;20023;-84
2022/12/14 11:48:29;;;;;;;17.63;7.50;;;;;;;-1.06;70.97;100218.06;5120335;27;20015;-84